sensor_id;sensor_type;location;lat;lon;timestamp;P1;durP1;ratioP1;P2;durP2;ratioP2
25263;SDS011;13211;51.796;5.808;2023-03-08T00:06:32;41.28;;;20.65;;
25263;SDS011;13211;51.796;5.808;2023-03-08T00:09:01;39.42;;;21.85;;
25263;SDS011;13211;51.796;5.808;2023-03-08T00:11:29;48.85;;;22.38;;
25263;SDS011;13211;51.796;5.808;2023-03-08T00:13:57;46.45;;;21.67;;
25263;SDS011;13211;51.796;5.808;2023-03-08T00:16:25;45.88;;;21.00;;
25263;SDS011;13211;51.796;5.808;2023-03-08T00:18:52;41.25;;;21.63;;
25263;SDS011;13211;51.796;5.808;2023-03-08T00:21:21;43.33;;;21.20;;
25263;SDS011;13211;51.796;5.808;2023-03-08T00:23:50;44.95;;;20.95;;
25263;SDS011;13211;51.796;5.808;2023-03-08T00:28:47;39.22;;;19.45;;
25263;SDS011;13211;51.796;5.808;2023-03-08T00:31:18;40.33;;;20.85;;
25263;SDS011;13211;51.796;5.808;2023-03-08T00:33:46;35.90;;;19.20;;
25263;SDS011;13211;51.796;5.808;2023-03-08T00:36:15;39.95;;;19.55;;
25263;SDS011;13211;51.796;5.808;2023-03-08T00:38:43;35.65;;;19.40;;
25263;SDS011;13211;51.796;5.808;2023-03-08T00:41:13;37.55;;;18.98;;
25263;SDS011;13211;51.796;5.808;2023-03-08T00:43:40;38.80;;;19.00;;
25263;SDS011;13211;51.796;5.808;2023-03-08T00:46:10;47.72;;;19.02;;
25263;SDS011;13211;51.796;5.808;2023-03-08T00:48:38;40.95;;;18.30;;
25263;SDS011;13211;51.796;5.808;2023-03-08T00:51:07;36.50;;;18.15;;
25263;SDS011;13211;51.796;5.808;2023-03-08T00:53:35;34.80;;;17.27;;
25263;SDS011;13211;51.796;5.808;2023-03-08T00:56:04;35.72;;;18.75;;
25263;SDS011;13211;51.796;5.808;2023-03-08T00:58:31;33.83;;;18.42;;
25263;SDS011;13211;51.796;5.808;2023-03-08T01:01:01;35.00;;;18.35;;
25263;SDS011;13211;51.796;5.808;2023-03-08T01:03:33;34.55;;;17.60;;
25263;SDS011;13211;51.796;5.808;2023-03-08T01:06:07;35.45;;;18.20;;
25263;SDS011;13211;51.796;5.808;2023-03-08T01:08:36;33.80;;;17.73;;
25263;SDS011;13211;51.796;5.808;2023-03-08T01:11:05;37.35;;;18.98;;
25263;SDS011;13211;51.796;5.808;2023-03-08T01:13:33;35.00;;;17.90;;
25263;SDS011;13211;51.796;5.808;2023-03-08T01:16:01;37.30;;;18.48;;
25263;SDS011;13211;51.796;5.808;2023-03-08T01:18:29;33.95;;;17.73;;
25263;SDS011;13211;51.796;5.808;2023-03-08T01:20:58;30.83;;;16.08;;
25263;SDS011;13211;51.796;5.808;2023-03-08T01:23:28;31.45;;;16.67;;
25263;SDS011;13211;51.796;5.808;2023-03-08T01:26:03;27.67;;;15.38;;
25263;SDS011;13211;51.796;5.808;2023-03-08T01:28:31;34.20;;;16.98;;
25263;SDS011;13211;51.796;5.808;2023-03-08T01:31:03;31.55;;;16.20;;
25263;SDS011;13211;51.796;5.808;2023-03-08T01:33:32;35.22;;;16.95;;
25263;SDS011;13211;51.796;5.808;2023-03-08T01:36:04;27.52;;;15.57;;
25263;SDS011;13211;51.796;5.808;2023-03-08T01:38:36;32.30;;;15.95;;
25263;SDS011;13211;51.796;5.808;2023-03-08T01:41:05;33.80;;;16.30;;
25263;SDS011;13211;51.796;5.808;2023-03-08T01:43:35;28.80;;;15.60;;
25263;SDS011;13211;51.796;5.808;2023-03-08T01:51:37;31.27;;;15.77;;
25263;SDS011;13211;51.796;5.808;2023-03-08T01:54:16;33.15;;;16.60;;
25263;SDS011;13211;51.796;5.808;2023-03-08T01:56:49;32.53;;;15.75;;
25263;SDS011;13211;51.796;5.808;2023-03-08T01:59:18;41.20;;;18.95;;
25263;SDS011;13211;51.796;5.808;2023-03-08T02:01:48;39.22;;;18.63;;
25263;SDS011;13211;51.796;5.808;2023-03-08T02:04:17;42.85;;;17.70;;
25263;SDS011;13211;51.796;5.808;2023-03-08T02:06:46;39.28;;;19.00;;
25263;SDS011;13211;51.796;5.808;2023-03-08T02:09:24;38.20;;;18.88;;
25263;SDS011;13211;51.796;5.808;2023-03-08T02:11:58;44.05;;;20.55;;
25263;SDS011;13211;51.796;5.808;2023-03-08T02:14:28;48.13;;;21.10;;
25263;SDS011;13211;51.796;5.808;2023-03-08T02:16:57;47.03;;;22.73;;
25263;SDS011;13211;51.796;5.808;2023-03-08T02:19:31;58.53;;;23.95;;
25263;SDS011;13211;51.796;5.808;2023-03-08T02:22:09;56.55;;;24.38;;
25263;SDS011;13211;51.796;5.808;2023-03-08T02:24:41;56.83;;;25.58;;
25263;SDS011;13211;51.796;5.808;2023-03-08T02:27:12;56.30;;;26.88;;
25263;SDS011;13211;51.796;5.808;2023-03-08T02:29:43;60.90;;;27.90;;
25263;SDS011;13211;51.796;5.808;2023-03-08T02:32:10;69.18;;;29.50;;
25263;SDS011;13211;51.796;5.808;2023-03-08T02:34:38;72.50;;;29.92;;
25263;SDS011;13211;51.796;5.808;2023-03-08T02:37:05;67.35;;;28.73;;
25263;SDS011;13211;51.796;5.808;2023-03-08T02:39:33;71.40;;;29.20;;
25263;SDS011;13211;51.796;5.808;2023-03-08T02:42:01;61.75;;;27.92;;
25263;SDS011;13211;51.796;5.808;2023-03-08T02:44:29;69.57;;;30.25;;
25263;SDS011;13211;51.796;5.808;2023-03-08T02:46:57;76.05;;;30.00;;
25263;SDS011;13211;51.796;5.808;2023-03-08T02:49:24;85.22;;;31.33;;
25263;SDS011;13211;51.796;5.808;2023-03-08T02:51:52;85.40;;;30.35;;
25263;SDS011;13211;51.796;5.808;2023-03-08T02:54:21;73.85;;;28.27;;
25263;SDS011;13211;51.796;5.808;2023-03-08T02:56:48;82.13;;;29.27;;
25263;SDS011;13211;51.796;5.808;2023-03-08T02:59:17;157.80;;;32.33;;
25263;SDS011;13211;51.796;5.808;2023-03-08T03:01:51;71.85;;;30.90;;
25263;SDS011;13211;51.796;5.808;2023-03-08T03:04:21;70.82;;;30.63;;
25263;SDS011;13211;51.796;5.808;2023-03-08T03:06:49;76.80;;;31.40;;
25263;SDS011;13211;51.796;5.808;2023-03-08T03:09:18;72.93;;;32.40;;
25263;SDS011;13211;51.796;5.808;2023-03-08T03:11:47;82.82;;;34.22;;
25263;SDS011;13211;51.796;5.808;2023-03-08T03:14:18;82.82;;;34.17;;
25263;SDS011;13211;51.796;5.808;2023-03-08T03:16:48;84.07;;;35.33;;
25263;SDS011;13211;51.796;5.808;2023-03-08T03:19:18;84.22;;;34.38;;
25263;SDS011;13211;51.796;5.808;2023-03-08T03:21:46;81.68;;;34.35;;
25263;SDS011;13211;51.796;5.808;2023-03-08T03:24:14;91.90;;;36.15;;
25263;SDS011;13211;51.796;5.808;2023-03-08T03:26:52;77.25;;;32.85;;
25263;SDS011;13211;51.796;5.808;2023-03-08T03:29:22;89.35;;;35.45;;
25263;SDS011;13211;51.796;5.808;2023-03-08T03:31:57;90.07;;;36.55;;
25263;SDS011;13211;51.796;5.808;2023-03-08T03:34:26;92.25;;;36.72;;
25263;SDS011;13211;51.796;5.808;2023-03-08T03:36:54;84.78;;;33.70;;
25263;SDS011;13211;51.796;5.808;2023-03-08T03:39:22;87.60;;;35.72;;
25263;SDS011;13211;51.796;5.808;2023-03-08T03:41:51;91.60;;;35.10;;
25263;SDS011;13211;51.796;5.808;2023-03-08T03:44:19;92.50;;;34.83;;
25263;SDS011;13211;51.796;5.808;2023-03-08T03:46:47;84.97;;;35.13;;
25263;SDS011;13211;51.796;5.808;2023-03-08T03:49:21;88.95;;;36.20;;
25263;SDS011;13211;51.796;5.808;2023-03-08T03:51:49;81.15;;;33.97;;
25263;SDS011;13211;51.796;5.808;2023-03-08T03:54:25;85.32;;;34.25;;
25263;SDS011;13211;51.796;5.808;2023-03-08T03:56:56;81.60;;;33.97;;
25263;SDS011;13211;51.796;5.808;2023-03-08T03:59:27;90.47;;;35.30;;
25263;SDS011;13211;51.796;5.808;2023-03-08T04:01:55;91.32;;;35.85;;
25263;SDS011;13211;51.796;5.808;2023-03-08T04:04:34;84.57;;;35.63;;
25263;SDS011;13211;51.796;5.808;2023-03-08T04:07:03;88.35;;;35.50;;
25263;SDS011;13211;51.796;5.808;2023-03-08T04:09:38;85.65;;;34.83;;
25263;SDS011;13211;51.796;5.808;2023-03-08T04:12:13;89.75;;;34.10;;
25263;SDS011;13211;51.796;5.808;2023-03-08T04:14:45;87.07;;;34.92;;
25263;SDS011;13211;51.796;5.808;2023-03-08T04:17:13;88.97;;;33.50;;
25263;SDS011;13211;51.796;5.808;2023-03-08T04:19:47;87.82;;;33.83;;
25263;SDS011;13211;51.796;5.808;2023-03-08T04:22:18;79.35;;;32.92;;
25263;SDS011;13211;51.796;5.808;2023-03-08T04:24:54;83.60;;;34.97;;
25263;SDS011;13211;51.796;5.808;2023-03-08T04:27:31;85.80;;;33.85;;
25263;SDS011;13211;51.796;5.808;2023-03-08T04:29:59;91.45;;;34.17;;
25263;SDS011;13211;51.796;5.808;2023-03-08T04:32:30;84.63;;;34.28;;
25263;SDS011;13211;51.796;5.808;2023-03-08T04:34:58;83.65;;;34.38;;
25263;SDS011;13211;51.796;5.808;2023-03-08T04:37:28;86.90;;;35.08;;
25263;SDS011;13211;51.796;5.808;2023-03-08T04:40:04;90.90;;;35.15;;
25263;SDS011;13211;51.796;5.808;2023-03-08T04:42:41;89.25;;;34.90;;
25263;SDS011;13211;51.796;5.808;2023-03-08T04:47:41;81.72;;;32.03;;
25263;SDS011;13211;51.796;5.808;2023-03-08T04:50:10;87.32;;;33.55;;
25263;SDS011;13211;51.796;5.808;2023-03-08T04:52:39;88.30;;;33.38;;
25263;SDS011;13211;51.796;5.808;2023-03-08T04:55:06;85.68;;;33.38;;
25263;SDS011;13211;51.796;5.808;2023-03-08T04:57:38;82.85;;;32.30;;
25263;SDS011;13211;51.796;5.808;2023-03-08T05:00:07;78.20;;;32.67;;
25263;SDS011;13211;51.796;5.808;2023-03-08T05:02:38;84.13;;;33.85;;
25263;SDS011;13211;51.796;5.808;2023-03-08T05:05:11;89.18;;;34.20;;
25263;SDS011;13211;51.796;5.808;2023-03-08T05:07:41;86.35;;;32.00;;
25263;SDS011;13211;51.796;5.808;2023-03-08T05:10:09;91.75;;;34.60;;
25263;SDS011;13211;51.796;5.808;2023-03-08T05:17:37;82.93;;;31.08;;
25263;SDS011;13211;51.796;5.808;2023-03-08T05:20:05;91.53;;;32.80;;
25263;SDS011;13211;51.796;5.808;2023-03-08T05:22:37;87.85;;;34.80;;
25263;SDS011;13211;51.796;5.808;2023-03-08T05:25:27;87.78;;;34.40;;
25263;SDS011;13211;51.796;5.808;2023-03-08T05:27:58;90.05;;;33.42;;
25263;SDS011;13211;51.796;5.808;2023-03-08T05:30:26;90.45;;;33.60;;
25263;SDS011;13211;51.796;5.808;2023-03-08T05:32:54;86.25;;;34.47;;
25263;SDS011;13211;51.796;5.808;2023-03-08T05:35:23;94.28;;;34.58;;
25263;SDS011;13211;51.796;5.808;2023-03-08T05:37:52;87.63;;;32.55;;
25263;SDS011;13211;51.796;5.808;2023-03-08T05:40:20;92.75;;;33.00;;
25263;SDS011;13211;51.796;5.808;2023-03-08T05:42:49;89.32;;;33.15;;
25263;SDS011;13211;51.796;5.808;2023-03-08T05:45:18;79.60;;;30.38;;
25263;SDS011;13211;51.796;5.808;2023-03-08T05:47:46;89.90;;;33.92;;
25263;SDS011;13211;51.796;5.808;2023-03-08T05:50:14;98.82;;;34.80;;
25263;SDS011;13211;51.796;5.808;2023-03-08T05:52:43;89.53;;;33.65;;
25263;SDS011;13211;51.796;5.808;2023-03-08T05:55:17;86.82;;;33.10;;
25263;SDS011;13211;51.796;5.808;2023-03-08T05:57:47;86.05;;;33.38;;
25263;SDS011;13211;51.796;5.808;2023-03-08T06:00:15;93.47;;;33.63;;
25263;SDS011;13211;51.796;5.808;2023-03-08T06:02:48;89.78;;;33.53;;
25263;SDS011;13211;51.796;5.808;2023-03-08T06:05:19;84.32;;;31.98;;
25263;SDS011;13211;51.796;5.808;2023-03-08T06:07:52;90.07;;;33.42;;
25263;SDS011;13211;51.796;5.808;2023-03-08T06:10:20;83.57;;;33.10;;
25263;SDS011;13211;51.796;5.808;2023-03-08T06:12:50;90.67;;;33.33;;
25263;SDS011;13211;51.796;5.808;2023-03-08T06:15:22;86.00;;;34.42;;
25263;SDS011;13211;51.796;5.808;2023-03-08T06:17:51;87.95;;;33.72;;
25263;SDS011;13211;51.796;5.808;2023-03-08T06:20:22;86.75;;;34.42;;
25263;SDS011;13211;51.796;5.808;2023-03-08T06:22:51;80.63;;;31.55;;
25263;SDS011;13211;51.796;5.808;2023-03-08T06:25:18;83.07;;;32.05;;
25263;SDS011;13211;51.796;5.808;2023-03-08T06:27:51;87.45;;;32.72;;
25263;SDS011;13211;51.796;5.808;2023-03-08T06:30:25;87.13;;;32.65;;
25263;SDS011;13211;51.796;5.808;2023-03-08T06:32:54;96.50;;;34.17;;
25263;SDS011;13211;51.796;5.808;2023-03-08T06:35:22;89.20;;;32.85;;
25263;SDS011;13211;51.796;5.808;2023-03-08T06:37:55;81.70;;;31.30;;
25263;SDS011;13211;51.796;5.808;2023-03-08T06:40:23;104.22;;;34.97;;
25263;SDS011;13211;51.796;5.808;2023-03-08T06:42:51;92.97;;;33.13;;
25263;SDS011;13211;51.796;5.808;2023-03-08T06:45:20;96.72;;;34.03;;
25263;SDS011;13211;51.796;5.808;2023-03-08T06:47:49;86.13;;;33.70;;
25263;SDS011;13211;51.796;5.808;2023-03-08T06:50:18;88.40;;;33.33;;
25263;SDS011;13211;51.796;5.808;2023-03-08T06:52:48;88.00;;;33.00;;
25263;SDS011;13211;51.796;5.808;2023-03-08T06:55:36;95.00;;;33.33;;
25263;SDS011;13211;51.796;5.808;2023-03-08T06:58:04;84.45;;;33.30;;
25263;SDS011;13211;51.796;5.808;2023-03-08T07:00:32;82.82;;;32.58;;
25263;SDS011;13211;51.796;5.808;2023-03-08T07:03:00;90.38;;;33.00;;
25263;SDS011;13211;51.796;5.808;2023-03-08T07:05:28;87.20;;;33.63;;
25263;SDS011;13211;51.796;5.808;2023-03-08T07:07:56;82.10;;;31.80;;
25263;SDS011;13211;51.796;5.808;2023-03-08T07:10:24;84.30;;;31.65;;
25263;SDS011;13211;51.796;5.808;2023-03-08T07:12:53;81.68;;;32.20;;
25263;SDS011;13211;51.796;5.808;2023-03-08T07:15:22;84.15;;;33.30;;
25263;SDS011;13211;51.796;5.808;2023-03-08T07:17:54;85.55;;;32.50;;
25263;SDS011;13211;51.796;5.808;2023-03-08T07:20:22;78.70;;;32.53;;
25263;SDS011;13211;51.796;5.808;2023-03-08T07:22:51;83.10;;;32.63;;
25263;SDS011;13211;51.796;5.808;2023-03-08T07:25:19;77.53;;;31.45;;
25263;SDS011;13211;51.796;5.808;2023-03-08T07:27:47;72.35;;;30.58;;
25263;SDS011;13211;51.796;5.808;2023-03-08T07:30:16;81.18;;;31.75;;
25263;SDS011;13211;51.796;5.808;2023-03-08T07:32:44;74.57;;;31.63;;
25263;SDS011;13211;51.796;5.808;2023-03-08T07:35:13;74.85;;;30.48;;
25263;SDS011;13211;51.796;5.808;2023-03-08T07:37:44;69.30;;;29.63;;
25263;SDS011;13211;51.796;5.808;2023-03-08T07:40:13;69.63;;;29.85;;
25263;SDS011;13211;51.796;5.808;2023-03-08T07:42:43;75.45;;;31.02;;
25263;SDS011;13211;51.796;5.808;2023-03-08T07:45:25;76.50;;;29.70;;
25263;SDS011;13211;51.796;5.808;2023-03-08T07:47:53;67.70;;;29.55;;
25263;SDS011;13211;51.796;5.808;2023-03-08T07:50:21;71.18;;;30.17;;
25263;SDS011;13211;51.796;5.808;2023-03-08T07:52:49;61.15;;;27.73;;
25263;SDS011;13211;51.796;5.808;2023-03-08T07:55:17;68.07;;;29.00;;
25263;SDS011;13211;51.796;5.808;2023-03-08T07:57:45;61.60;;;27.65;;
25263;SDS011;13211;51.796;5.808;2023-03-08T08:00:13;61.40;;;26.02;;
25263;SDS011;13211;51.796;5.808;2023-03-08T08:02:41;58.40;;;26.15;;
25263;SDS011;13211;51.796;5.808;2023-03-08T08:05:08;61.67;;;27.25;;
25263;SDS011;13211;51.796;5.808;2023-03-08T08:07:36;56.22;;;25.42;;
25263;SDS011;13211;51.796;5.808;2023-03-08T08:10:04;60.20;;;26.77;;
25263;SDS011;13211;51.796;5.808;2023-03-08T08:12:32;56.67;;;26.15;;
25263;SDS011;13211;51.796;5.808;2023-03-08T08:15:00;54.95;;;24.77;;
25263;SDS011;13211;51.796;5.808;2023-03-08T08:17:28;51.80;;;22.85;;
25263;SDS011;13211;51.796;5.808;2023-03-08T08:19:55;49.15;;;23.92;;
25263;SDS011;13211;51.796;5.808;2023-03-08T08:22:23;52.08;;;24.02;;
25263;SDS011;13211;51.796;5.808;2023-03-08T08:24:51;50.08;;;23.50;;
25263;SDS011;13211;51.796;5.808;2023-03-08T08:27:20;51.38;;;24.15;;
25263;SDS011;13211;51.796;5.808;2023-03-08T08:29:48;51.47;;;23.95;;
25263;SDS011;13211;51.796;5.808;2023-03-08T08:32:19;49.22;;;23.67;;
25263;SDS011;13211;51.796;5.808;2023-03-08T08:34:47;46.67;;;23.27;;
25263;SDS011;13211;51.796;5.808;2023-03-08T08:39:46;39.45;;;18.75;;
25263;SDS011;13211;51.796;5.808;2023-03-08T08:42:14;38.42;;;18.48;;
25263;SDS011;13211;51.796;5.808;2023-03-08T08:44:42;38.95;;;17.95;;
25263;SDS011;13211;51.796;5.808;2023-03-08T08:47:10;38.67;;;18.23;;
25263;SDS011;13211;51.796;5.808;2023-03-08T08:49:37;38.65;;;18.48;;
25263;SDS011;13211;51.796;5.808;2023-03-08T08:52:05;39.55;;;18.25;;
25263;SDS011;13211;51.796;5.808;2023-03-08T08:54:33;35.80;;;17.55;;
25263;SDS011;13211;51.796;5.808;2023-03-08T08:57:00;35.50;;;17.75;;
25263;SDS011;13211;51.796;5.808;2023-03-08T08:59:28;41.28;;;19.25;;
25263;SDS011;13211;51.796;5.808;2023-03-08T09:01:55;36.83;;;18.52;;
25263;SDS011;13211;51.796;5.808;2023-03-08T09:04:23;38.72;;;17.83;;
25263;SDS011;13211;51.796;5.808;2023-03-08T09:06:51;39.17;;;19.38;;
25263;SDS011;13211;51.796;5.808;2023-03-08T09:09:19;40.03;;;19.55;;
25263;SDS011;13211;51.796;5.808;2023-03-08T09:11:52;41.97;;;19.90;;
25263;SDS011;13211;51.796;5.808;2023-03-08T09:14:21;37.33;;;18.80;;
25263;SDS011;13211;51.796;5.808;2023-03-08T09:16:50;40.58;;;19.23;;
25263;SDS011;13211;51.796;5.808;2023-03-08T09:19:18;39.25;;;18.30;;
25263;SDS011;13211;51.796;5.808;2023-03-08T09:21:46;38.88;;;18.85;;
25263;SDS011;13211;51.796;5.808;2023-03-08T09:24:14;41.58;;;18.88;;
25263;SDS011;13211;51.796;5.808;2023-03-08T09:26:44;45.58;;;19.02;;
25263;SDS011;13211;51.796;5.808;2023-03-08T09:29:12;42.40;;;19.30;;
25263;SDS011;13211;51.796;5.808;2023-03-08T09:31:40;40.67;;;18.08;;
25263;SDS011;13211;51.796;5.808;2023-03-08T09:34:09;39.75;;;18.33;;
25263;SDS011;13211;51.796;5.808;2023-03-08T09:36:38;37.88;;;18.23;;
25263;SDS011;13211;51.796;5.808;2023-03-08T09:39:06;37.92;;;16.63;;
25263;SDS011;13211;51.796;5.808;2023-03-08T09:46:41;35.20;;;14.93;;
25263;SDS011;13211;51.796;5.808;2023-03-08T09:49:12;28.80;;;13.30;;
25263;SDS011;13211;51.796;5.808;2023-03-08T09:51:41;30.30;;;13.98;;
25263;SDS011;13211;51.796;5.808;2023-03-08T09:54:13;33.67;;;14.50;;
25263;SDS011;13211;51.796;5.808;2023-03-08T09:56:45;32.28;;;14.75;;
25263;SDS011;13211;51.796;5.808;2023-03-08T09:59:56;32.10;;;14.93;;
25263;SDS011;13211;51.796;5.808;2023-03-08T10:02:13;37.08;;;14.82;;
25263;SDS011;13211;51.796;5.808;2023-03-08T10:12:55;32.90;;;15.93;;
25263;SDS011;13211;51.796;5.808;2023-03-08T10:15:27;33.00;;;16.58;;
25263;SDS011;13211;51.796;5.808;2023-03-08T10:18:01;28.67;;;14.70;;
25263;SDS011;13211;51.796;5.808;2023-03-08T10:20:31;30.85;;;14.88;;
25263;SDS011;13211;51.796;5.808;2023-03-08T10:23:26;31.45;;;16.40;;
25263;SDS011;13211;51.796;5.808;2023-03-08T10:25:53;27.55;;;13.13;;
25263;SDS011;13211;51.796;5.808;2023-03-08T10:28:22;28.15;;;13.68;;
25263;SDS011;13211;51.796;5.808;2023-03-08T10:30:54;30.58;;;14.73;;
25263;SDS011;13211;51.796;5.808;2023-03-08T10:33:29;27.45;;;14.63;;
25263;SDS011;13211;51.796;5.808;2023-03-08T10:38:29;24.42;;;13.35;;
25263;SDS011;13211;51.796;5.808;2023-03-08T10:41:18;27.10;;;14.15;;
25263;SDS011;13211;51.796;5.808;2023-03-08T10:43:48;30.13;;;14.73;;
25263;SDS011;13211;51.796;5.808;2023-03-08T10:48:45;29.38;;;15.63;;
25263;SDS011;13211;51.796;5.808;2023-03-08T10:53:55;29.08;;;13.88;;
25263;SDS011;13211;51.796;5.808;2023-03-08T10:59:00;26.02;;;14.23;;
25263;SDS011;13211;51.796;5.808;2023-03-08T11:01:30;23.20;;;12.88;;
25263;SDS011;13211;51.796;5.808;2023-03-08T11:04:12;24.83;;;12.68;;
25263;SDS011;13211;51.796;5.808;2023-03-08T11:06:41;27.80;;;14.35;;
25263;SDS011;13211;51.796;5.808;2023-03-08T11:09:25;23.35;;;12.90;;
25263;SDS011;13211;51.796;5.808;2023-03-08T11:11:56;24.77;;;12.48;;
25263;SDS011;13211;51.796;5.808;2023-03-08T11:14:26;25.70;;;13.60;;
25263;SDS011;13211;51.796;5.808;2023-03-08T11:24:38;20.17;;;11.10;;
25263;SDS011;13211;51.796;5.808;2023-03-08T11:45:53;22.70;;;10.40;;
25263;SDS011;13211;51.796;5.808;2023-03-08T11:56:22;18.42;;;8.75;;
25263;SDS011;13211;51.796;5.808;2023-03-08T11:58:57;16.48;;;9.00;;
25263;SDS011;13211;51.796;5.808;2023-03-08T12:01:29;18.98;;;8.40;;
25263;SDS011;13211;51.796;5.808;2023-03-08T12:03:59;17.23;;;8.48;;
25263;SDS011;13211;51.796;5.808;2023-03-08T12:06:31;15.65;;;8.60;;
25263;SDS011;13211;51.796;5.808;2023-03-08T12:09:04;17.63;;;8.10;;
25263;SDS011;13211;51.796;5.808;2023-03-08T12:11:40;16.63;;;8.30;;
25263;SDS011;13211;51.796;5.808;2023-03-08T12:24:24;14.15;;;7.38;;
25263;SDS011;13211;51.796;5.808;2023-03-08T12:26:55;12.77;;;6.43;;
25263;SDS011;13211;51.796;5.808;2023-03-08T12:32:05;12.98;;;7.15;;
25263;SDS011;13211;51.796;5.808;2023-03-08T12:37:02;18.50;;;6.90;;
25263;SDS011;13211;51.796;5.808;2023-03-08T12:39:34;11.93;;;6.55;;
25263;SDS011;13211;51.796;5.808;2023-03-08T12:44:39;11.52;;;7.05;;
25263;SDS011;13211;51.796;5.808;2023-03-08T12:49:39;14.88;;;7.43;;
25263;SDS011;13211;51.796;5.808;2023-03-08T12:57:27;12.45;;;6.97;;
25263;SDS011;13211;51.796;5.808;2023-03-08T12:59:56;11.30;;;6.97;;
25263;SDS011;13211;51.796;5.808;2023-03-08T13:02:31;12.18;;;6.80;;
25263;SDS011;13211;51.796;5.808;2023-03-08T13:05:01;12.98;;;7.32;;
25263;SDS011;13211;51.796;5.808;2023-03-08T13:07:49;11.95;;;7.03;;
25263;SDS011;13211;51.796;5.808;2023-03-08T13:10:20;14.03;;;7.37;;
25263;SDS011;13211;51.796;5.808;2023-03-08T13:13:03;14.32;;;7.50;;
25263;SDS011;13211;51.796;5.808;2023-03-08T13:15:33;10.85;;;7.20;;
25263;SDS011;13211;51.796;5.808;2023-03-08T13:28:25;16.38;;;8.00;;
25263;SDS011;13211;51.796;5.808;2023-03-08T13:31:12;14.23;;;8.55;;
25263;SDS011;13211;51.796;5.808;2023-03-08T13:33:51;11.80;;;7.13;;
25263;SDS011;13211;51.796;5.808;2023-03-08T13:36:20;15.13;;;7.72;;
25263;SDS011;13211;51.796;5.808;2023-03-08T13:41:33;11.20;;;7.00;;
25263;SDS011;13211;51.796;5.808;2023-03-08T13:44:02;12.88;;;6.97;;
25263;SDS011;13211;51.796;5.808;2023-03-08T13:46:30;13.88;;;7.25;;
25263;SDS011;13211;51.796;5.808;2023-03-08T13:48:59;13.27;;;7.15;;
25263;SDS011;13211;51.796;5.808;2023-03-08T13:51:27;12.30;;;7.93;;
25263;SDS011;13211;51.796;5.808;2023-03-08T13:53:55;14.32;;;8.05;;
25263;SDS011;13211;51.796;5.808;2023-03-08T13:56:24;11.98;;;7.72;;
25263;SDS011;13211;51.796;5.808;2023-03-08T13:58:53;13.93;;;8.25;;
25263;SDS011;13211;51.796;5.808;2023-03-08T14:01:22;12.32;;;7.75;;
25263;SDS011;13211;51.796;5.808;2023-03-08T14:03:52;11.80;;;7.63;;
25263;SDS011;13211;51.796;5.808;2023-03-08T14:06:26;12.30;;;7.97;;
25263;SDS011;13211;51.796;5.808;2023-03-08T14:08:59;14.70;;;7.95;;
25263;SDS011;13211;51.796;5.808;2023-03-08T14:11:31;17.30;;;8.00;;
25263;SDS011;13211;51.796;5.808;2023-03-08T14:13:59;12.45;;;7.97;;
25263;SDS011;13211;51.796;5.808;2023-03-08T14:16:29;10.88;;;6.88;;
25263;SDS011;13211;51.796;5.808;2023-03-08T14:18:59;10.68;;;6.75;;
25263;SDS011;13211;51.796;5.808;2023-03-08T14:21:35;10.43;;;6.68;;
25263;SDS011;13211;51.796;5.808;2023-03-08T14:24:03;13.20;;;6.60;;
25263;SDS011;13211;51.796;5.808;2023-03-08T14:26:37;13.13;;;6.90;;
25263;SDS011;13211;51.796;5.808;2023-03-08T14:31:36;10.35;;;6.72;;
25263;SDS011;13211;51.796;5.808;2023-03-08T14:34:17;12.50;;;6.18;;
25263;SDS011;13211;51.796;5.808;2023-03-08T14:36:50;9.88;;;6.20;;
25263;SDS011;13211;51.796;5.808;2023-03-08T14:39:18;10.55;;;6.10;;
25263;SDS011;13211;51.796;5.808;2023-03-08T14:41:46;11.82;;;6.10;;
25263;SDS011;13211;51.796;5.808;2023-03-08T14:44:22;12.02;;;6.20;;
25263;SDS011;13211;51.796;5.808;2023-03-08T14:46:52;11.73;;;6.07;;
25263;SDS011;13211;51.796;5.808;2023-03-08T14:49:27;10.85;;;6.47;;
25263;SDS011;13211;51.796;5.808;2023-03-08T14:51:55;11.05;;;6.18;;
25263;SDS011;13211;51.796;5.808;2023-03-08T14:54:33;11.98;;;6.50;;
25263;SDS011;13211;51.796;5.808;2023-03-08T14:57:09;10.27;;;6.57;;
25263;SDS011;13211;51.796;5.808;2023-03-08T14:59:40;11.70;;;6.90;;
25263;SDS011;13211;51.796;5.808;2023-03-08T15:02:09;10.18;;;6.82;;
25263;SDS011;13211;51.796;5.808;2023-03-08T15:04:37;9.50;;;6.05;;
25263;SDS011;13211;51.796;5.808;2023-03-08T15:07:05;9.15;;;6.25;;
25263;SDS011;13211;51.796;5.808;2023-03-08T15:09:33;10.05;;;6.63;;
25263;SDS011;13211;51.796;5.808;2023-03-08T15:12:01;12.60;;;6.35;;
25263;SDS011;13211;51.796;5.808;2023-03-08T15:14:28;11.02;;;6.32;;
25263;SDS011;13211;51.796;5.808;2023-03-08T15:16:56;9.80;;;6.05;;
25263;SDS011;13211;51.796;5.808;2023-03-08T15:19:24;8.50;;;6.18;;
25263;SDS011;13211;51.796;5.808;2023-03-08T15:21:52;9.82;;;6.72;;
25263;SDS011;13211;51.796;5.808;2023-03-08T15:24:21;13.27;;;6.55;;
25263;SDS011;13211;51.796;5.808;2023-03-08T15:26:49;9.80;;;6.03;;
25263;SDS011;13211;51.796;5.808;2023-03-08T15:31:49;9.45;;;6.50;;
25263;SDS011;13211;51.796;5.808;2023-03-08T15:34:18;9.52;;;6.45;;
25263;SDS011;13211;51.796;5.808;2023-03-08T15:36:55;12.02;;;7.07;;
25263;SDS011;13211;51.796;5.808;2023-03-08T15:39:24;9.40;;;6.15;;
25263;SDS011;13211;51.796;5.808;2023-03-08T15:41:51;10.23;;;6.13;;
25263;SDS011;13211;51.796;5.808;2023-03-08T15:44:20;8.95;;;6.55;;
25263;SDS011;13211;51.796;5.808;2023-03-08T15:46:48;11.85;;;7.00;;
25263;SDS011;13211;51.796;5.808;2023-03-08T15:49:18;11.88;;;7.28;;
25263;SDS011;13211;51.796;5.808;2023-03-08T15:51:47;10.27;;;7.03;;
25263;SDS011;13211;51.796;5.808;2023-03-08T15:54:14;12.07;;;7.28;;
25263;SDS011;13211;51.796;5.808;2023-03-08T15:56:42;11.13;;;7.15;;
25263;SDS011;13211;51.796;5.808;2023-03-08T15:59:09;11.55;;;7.05;;
25263;SDS011;13211;51.796;5.808;2023-03-08T16:01:37;13.63;;;7.15;;
25263;SDS011;13211;51.796;5.808;2023-03-08T16:04:05;11.77;;;7.10;;
25263;SDS011;13211;51.796;5.808;2023-03-08T16:06:33;13.13;;;7.53;;
25263;SDS011;13211;51.796;5.808;2023-03-08T16:09:02;11.18;;;7.18;;
25263;SDS011;13211;51.796;5.808;2023-03-08T16:11:30;13.70;;;7.97;;
25263;SDS011;13211;51.796;5.808;2023-03-08T16:13:58;11.82;;;7.43;;
25263;SDS011;13211;51.796;5.808;2023-03-08T16:16:26;12.50;;;8.00;;
25263;SDS011;13211;51.796;5.808;2023-03-08T16:19:10;11.70;;;7.30;;
25263;SDS011;13211;51.796;5.808;2023-03-08T16:21:38;14.32;;;7.65;;
25263;SDS011;13211;51.796;5.808;2023-03-08T16:24:05;12.88;;;7.88;;
25263;SDS011;13211;51.796;5.808;2023-03-08T16:26:33;13.05;;;7.70;;
25263;SDS011;13211;51.796;5.808;2023-03-08T16:29:01;14.20;;;8.27;;
25263;SDS011;13211;51.796;5.808;2023-03-08T16:31:30;13.00;;;7.93;;
25263;SDS011;13211;51.796;5.808;2023-03-08T16:34:02;13.48;;;8.43;;
25263;SDS011;13211;51.796;5.808;2023-03-08T16:36:30;16.70;;;8.57;;
25263;SDS011;13211;51.796;5.808;2023-03-08T16:38:58;15.07;;;8.45;;
25263;SDS011;13211;51.796;5.808;2023-03-08T16:41:26;15.02;;;9.15;;
25263;SDS011;13211;51.796;5.808;2023-03-08T16:43:55;15.05;;;9.05;;
25263;SDS011;13211;51.796;5.808;2023-03-08T16:46:23;16.55;;;9.48;;
25263;SDS011;13211;51.796;5.808;2023-03-08T16:48:51;17.20;;;9.98;;